Time;durP1;ratioP1;P1;durP2;ratioP2;P2;SDS_P1;SDS_P2;PMS_P1;PMS_P2;Temp;Humidity;BMP_temperature;BMP_pressure;BME280_temperature;BME280_humidity;BME280_pressure;Samples;Min_cycle;Max_cycle;Signal;HPM_P1;HPM_P2
2021/11/13 00:01:28;;;;;;;9.95;2.72;;;;;;;;;;4742709;29;20093;-85
2021/11/13 00:04:03;;;;;;;9.93;2.90;;;;;;;;;;4740154;29;20162;-85
2021/11/13 00:06:42;;;;;;;11.52;2.75;;;;;;;;;;4763299;29;20043;-85
2021/11/13 00:09:10;;;;;;;14.52;3.40;;;;;;;;;;4732729;29;20078;-85
2021/11/13 00:11:45;;;;;;;11.48;2.78;;;;;;;;;;4759213;29;21595;-85
2021/11/13 00:14:17;;;;;;;10.23;3.17;;;;;;;;;;4746770;29;20079;-88
2021/11/13 00:16:48;;;;;;;13.45;3.30;;;;;;;;;;4745325;29;21030;-87
2021/11/13 00:19:16;;;;;;;16.13;3.30;;;;;;;;;;4763316;28;21423;-86
2021/11/13 00:21:54;;;;;;;11.90;3.30;;;;;;;;;;4808639;28;20070;-84
2021/11/13 00:24:31;;;;;;;13.18;3.55;;;;;;;;;;4818163;28;20139;-84
2021/11/13 00:27:05;;;;;;;10.85;2.88;;;;;;;;;;4813499;28;20065;-85
2021/11/13 00:29:34;;;;;;;13.35;3.55;;;;;;;;;;4817668;28;20152;-84
2021/11/13 00:32:09;;;;;;;13.55;3.47;;;;;;;;;;4820778;28;20777;-85
2021/11/13 00:34:40;;;;;;;10.93;3.58;;;;;;;;;;4809032;28;20046;-84
2021/11/13 00:37:10;;;;;;;12.35;3.42;;;;;;;;;;4804770;28;20042;-84
2021/11/13 00:39:37;;;;;;;14.70;4.00;;;;;;;;;;4805981;28;20036;-84
2021/11/13 00:42:05;;;;;;;11.63;3.75;;;;;;;;;;4813019;28;20520;-85
2021/11/13 00:44:34;;;;;;;13.98;3.90;;;;;;;;;;4801388;28;20042;-85
2021/11/13 00:47:06;;;;;;;12.43;3.70;;;;;;;;;;4784282;28;20042;-84
2021/11/13 00:49:34;;;;;;;12.20;3.40;;;;;;;;;;4787619;28;20129;-85
2021/11/13 00:52:08;;;;;;;10.38;3.38;;;;;;;;;;4786020;28;20718;-84
2021/11/13 00:55:09;;;;;;;12.00;3.30;;;;;;;;;;4775304;28;20177;-85
2021/11/13 00:57:42;;;;;;;12.25;4.15;;;;;;;;;;4750520;29;20044;-84
2021/11/13 01:00:25;;;;;;;;;;;;;;;;;;;;;
2021/11/13 01:02:59;;;;;;;12.48;4.47;;;;;;;;;;4747602;28;20083;-85
2021/11/13 01:05:27;;;;;;;13.82;4.30;;;;;;;;;;4726664;29;20040;-85
2021/11/13 01:08:00;;;;;;;13.38;4.38;;;;;;;;;;4777389;29;20246;-84
2021/11/13 01:10:35;;;;;;;12.68;3.90;;;;;;;;;;4768563;29;20043;-85
2021/11/13 01:13:18;;;;;;;13.93;3.78;;;;;;;;;;4745066;29;20700;-84
2021/11/13 01:18:44;;;;;;;13.77;3.70;;;;;;;;;;4761338;29;21106;-84
2021/11/13 01:21:12;;;;;;;14.57;3.92;;;;;;;;;;4767422;28;20043;-84
2021/11/13 01:23:43;;;;;;;12.05;3.72;;;;;;;;;;4757975;28;20058;-84
2021/11/13 01:26:09;;;;;;;14.13;4.18;;;;;;;;;;4759763;28;21236;-85
2021/11/13 01:28:38;;;;;;;15.02;4.28;;;;;;;;;;4772654;28;20039;-84
2021/11/13 01:31:09;;;;;;;14.60;3.83;;;;;;;;;;4755517;28;20044;-85
2021/11/13 01:33:40;;;;;;;12.85;4.15;;;;;;;;;;4772896;28;20068;-85
2021/11/13 01:36:07;;;;;;;14.88;4.03;;;;;;;;;;4838486;28;20734;-85
2021/11/13 01:38:39;;;;;;;14.45;3.92;;;;;;;;;;4824802;28;20081;-84
2021/11/13 01:41:11;;;;;;;16.23;4.28;;;;;;;;;;4821257;28;20081;-84
2021/11/13 01:43:41;;;;;;;16.05;5.05;;;;;;;;;;4808818;28;20064;-85
2021/11/13 01:46:11;;;;;;;14.10;4.32;;;;;;;;;;4794419;28;20101;-84
2021/11/13 01:48:41;;;;;;;11.55;3.97;;;;;;;;;;4801222;28;20164;-84
2021/11/13 01:51:30;;;;;;;16.35;5.28;;;;;;;;;;4815225;28;20030;-85
2021/11/13 01:54:05;;;;;;;14.65;5.10;;;;;;;;;;4795687;28;20050;-84
2021/11/13 01:56:40;;;;;;;17.50;5.75;;;;;;;;;;4832082;28;20042;-84
2021/11/13 01:59:12;;;;;;;13.80;4.03;;;;;;;;;;4833109;28;20046;-84
2021/11/13 02:01:41;;;;;;;12.82;4.45;;;;;;;;;;4840511;28;21429;-84
2021/11/13 02:04:14;;;;;;;16.30;4.75;;;;;;;;;;4827628;28;20980;-84
2021/11/13 02:07:01;;;;;;;13.73;4.40;;;;;;;;;;4823167;28;20087;-84
2021/11/13 02:09:30;;;;;;;17.08;4.32;;;;;;;;;;4818109;28;20046;-84
2021/11/13 02:11:58;;;;;;;16.27;4.85;;;;;;;;;;4811771;28;20903;-84
2021/11/13 02:14:45;;;;;;;14.75;4.82;;;;;;;;;;4807569;28;20230;-84
2021/11/13 02:17:22;;;;;;;17.67;4.28;;;;;;;;;;4845871;28;20157;-84
2021/11/13 02:19:56;;;;;;;14.25;4.38;;;;;;;;;;4824081;28;20046;-84
2021/11/13 02:22:26;;;;;;;16.27;5.05;;;;;;;;;;4824517;28;22181;-85
2021/11/13 02:24:53;;;;;;;15.93;5.60;;;;;;;;;;4834379;28;20049;-85
2021/11/13 02:27:27;;;;;;;13.52;4.40;;;;;;;;;;4776450;28;20202;-85
2021/11/13 02:29:59;;;;;;;18.10;5.55;;;;;;;;;;4766978;28;20153;-85
2021/11/13 02:32:27;;;;;;;14.90;4.68;;;;;;;;;;4764303;28;20046;-86
2021/11/13 02:34:56;;;;;;;12.88;4.35;;;;;;;;;;4769151;28;21293;-85
2021/11/13 02:37:51;;;;;;;13.70;4.55;;;;;;;;;;4777384;28;20759;-86
2021/11/13 02:40:25;;;;;;;16.30;5.05;;;;;;;;;;4772185;28;20096;-86
2021/11/13 02:42:56;;;;;;;15.00;5.00;;;;;;;;;;4784693;28;20050;-86
2021/11/13 02:45:23;;;;;;;16.00;4.40;;;;;;;;;;4751065;28;20093;-86
2021/11/13 02:47:50;;;;;;;12.82;4.38;;;;;;;;;;4767340;28;20563;-85
2021/11/13 02:50:20;;;;;;;16.08;5.00;;;;;;;;;;4778790;28;20039;-85
2021/11/13 02:52:57;;;;;;;17.92;4.13;;;;;;;;;;4768030;28;20036;-84
2021/11/13 02:55:23;;;;;;;;;;;;;;;;;;4745791;28;21732;-85
2021/11/13 02:57:51;;;;;;;17.00;4.40;;;;;;;;;;4780989;28;19929;-87
2021/11/13 03:00:31;;;;;;;18.38;4.90;;;;;;;;;;4814630;28;20038;-84
2021/11/13 03:02:59;;;;;;;14.30;4.40;;;;;;;;;;4777616;28;20066;-84
2021/11/13 03:05:30;;;;;;;14.88;4.45;;;;;;;;;;4799596;28;20039;-86
2021/11/13 03:08:02;;;;;;;17.70;4.40;;;;;;;;;;4814796;28;20076;-87
2021/11/13 03:10:32;;;;;;;14.40;4.10;;;;;;;;;;4792970;28;21552;-84
2021/11/13 03:13:00;;;;;;;17.33;5.55;;;;;;;;;;4816768;28;20045;-88
2021/11/13 03:15:29;;;;;;;16.10;5.00;;;;;;;;;;4810815;28;21418;-85
2021/11/13 03:20:55;;;;;;;12.25;3.58;;;;;;;;;;4821490;28;20685;-87
2021/11/13 03:23:25;;;;;;;13.57;3.05;;;;;;;;;;4812622;28;20136;-86
2021/11/13 03:26:05;;;;;;;9.20;2.80;;;;;;;;;;4801491;28;20747;-88
2021/11/13 03:28:36;;;;;;;13.65;3.22;;;;;;;;;;4815010;28;20098;-84
2021/11/13 03:31:07;;;;;;;9.57;2.53;;;;;;;;;;4814781;28;20044;-82
2021/11/13 03:33:41;;;;;;;9.77;2.70;;;;;;;;;;4812155;28;20554;-81
2021/11/13 03:36:16;;;;;;;11.05;2.20;;;;;;;;;;4808858;28;21142;-82
2021/11/13 03:38:48;;;;;;;10.73;2.63;;;;;;;;;;4821234;28;20300;-82
2021/11/13 03:41:30;;;;;;;10.07;1.83;;;;;;;;;;4800615;28;20045;-83
2021/11/13 03:43:58;;;;;;;9.05;1.98;;;;;;;;;;4802209;28;20137;-83
2021/11/13 03:46:31;;;;;;;9.10;1.98;;;;;;;;;;4785154;28;21846;-84
2021/11/13 03:49:02;;;;;;;10.55;2.33;;;;;;;;;;4798171;28;21932;-82
2021/11/13 03:51:37;;;;;;;8.82;2.60;;;;;;;;;;4807398;28;20049;-84
2021/11/13 03:54:08;;;;;;;10.55;2.60;;;;;;;;;;4793441;28;20404;-83
2021/11/13 03:56:38;;;;;;;10.43;2.22;;;;;;;;;;4807771;28;20038;-82
2021/11/13 03:59:30;;;;;;;;;;;;;;;;;;;;;
2021/11/13 04:02:04;;;;;;;15.75;2.78;;;;;;;;;;4792524;28;21291;-82
2021/11/13 04:04:32;;;;;;;11.35;2.70;;;;;;;;;;4770312;28;20631;-82
2021/11/13 04:06:59;;;;;;;12.63;2.42;;;;;;;;;;4766544;28;20732;-82
2021/11/13 04:09:28;;;;;;;8.93;2.65;;;;;;;;;;4767910;28;20049;-82
2021/11/13 04:12:05;;;;;;;12.15;2.30;;;;;;;;;;4785284;28;20070;-81
2021/11/13 04:14:41;;;;;;;10.98;2.45;;;;;;;;;;4768439;28;20046;-84
2021/11/13 04:17:10;;;;;;;9.57;1.90;;;;;;;;;;4750097;28;20043;-82
2021/11/13 04:19:44;;;;;;;10.80;2.22;;;;;;;;;;4752236;28;20043;-82
2021/11/13 04:22:31;;;;;;;9.57;2.67;;;;;;;;;;4740028;28;20036;-81
2021/11/13 04:25:01;;;;;;;11.52;2.38;;;;;;;;;;4733425;28;21920;-84
2021/11/13 04:27:35;;;;;;;10.57;2.75;;;;;;;;;;4744786;28;20099;-81
2021/11/13 04:30:13;;;;;;;10.52;2.97;;;;;;;;;;4746471;28;21665;-82
2021/11/13 04:32:46;;;;;;;12.80;3.50;;;;;;;;;;4746886;28;20043;-81
2021/11/13 04:35:23;;;;;;;12.93;3.33;;;;;;;;;;4746891;28;20399;-82
2021/11/13 04:37:55;;;;;;;13.85;3.50;;;;;;;;;;4719380;28;20085;-83
2021/11/13 04:40:27;;;;;;;17.35;4.32;;;;;;;;;;4733164;28;20149;-81
2021/11/13 04:42:55;;;;;;;15.02;4.00;;;;;;;;;;4771315;28;20047;-81
2021/11/13 04:45:34;;;;;;;15.77;4.03;;;;;;;;;;4740902;28;20047;-82
2021/11/13 04:48:03;;;;;;;14.50;3.92;;;;;;;;;;4739004;28;20102;-82
2021/11/13 04:50:33;;;;;;;13.40;3.47;;;;;;;;;;4750673;28;22259;-83
2021/11/13 04:53:02;;;;;;;17.50;3.42;;;;;;;;;;4738895;28;20161;-81
2021/11/13 04:55:35;;;;;;;16.88;3.22;;;;;;;;;;4750985;28;20816;-82
2021/11/13 04:58:20;;;;;;;13.32;3.22;;;;;;;;;;4760471;28;20062;-82
2021/11/13 05:00:47;;;;;;;14.60;3.47;;;;;;;;;;4751081;28;20112;-82
2021/11/13 05:03:22;;;;;;;14.68;3.20;;;;;;;;;;4764911;28;22444;-82
2021/11/13 05:06:12;;;;;;;8.98;2.33;;;;;;;;;;4784341;28;20035;-82
2021/11/13 05:08:45;;;;;;;12.82;2.78;;;;;;;;;;4776528;28;20044;-81
2021/11/13 05:11:18;;;;;;;11.23;2.60;;;;;;;;;;4797843;28;20053;-81
2021/11/13 05:13:51;;;;;;;14.68;3.38;;;;;;;;;;4793312;28;20050;-82
2021/11/13 05:16:19;;;;;;;17.67;3.80;;;;;;;;;;4808944;28;20039;-81
2021/11/13 05:18:51;;;;;;;13.02;3.70;;;;;;;;;;4795442;28;20046;-81
2021/11/13 05:21:21;;;;;;;16.02;4.50;;;;;;;;;;4781810;28;20038;-84
2021/11/13 05:24:14;;;;;;;20.10;4.85;;;;;;;;;;4790655;28;20653;-84
2021/11/13 05:26:52;;;;;;;18.30;4.65;;;;;;;;;;4811465;28;20039;-82
2021/11/13 05:29:24;;;;;;;17.15;4.40;;;;;;;;;;4815258;28;20046;-82
2021/11/13 05:31:59;;;;;;;22.85;5.05;;;;;;;;;;4798967;28;20057;-83
2021/11/13 05:34:35;;;;;;;19.38;5.28;;;;;;;;;;4805887;28;20123;-84
2021/11/13 05:37:03;;;;;;;20.65;5.05;;;;;;;;;;4805345;28;20041;-83
2021/11/13 05:39:36;;;;;;;21.55;4.55;;;;;;;;;;4803778;28;20026;-83
2021/11/13 05:42:09;;;;;;;17.10;4.40;;;;;;;;;;4798890;28;20031;-82
2021/11/13 05:45:02;;;;;;;19.23;5.30;;;;;;;;;;4792549;28;20048;-84
2021/11/13 05:47:30;;;;;;;21.60;5.68;;;;;;;;;;4817081;28;20978;-81
2021/11/13 05:49:57;;;;;;;21.08;4.88;;;;;;;;;;4799994;28;20059;-81
2021/11/13 05:52:33;;;;;;;24.77;5.97;;;;;;;;;;4800093;28;20133;-81
2021/11/13 05:55:02;;;;;;;21.58;5.47;;;;;;;;;;4806521;28;20043;-81
2021/11/13 05:57:32;;;;;;;19.02;5.50;;;;;;;;;;4742805;28;20047;-83
2021/11/13 05:59:59;;;;;;;25.17;6.28;;;;;;;;;;4748915;28;20252;-82
2021/11/13 06:02:32;;;;;;;24.15;6.00;;;;;;;;;;4759727;28;20050;-84
2021/11/13 06:04:59;;;;;;;18.75;5.18;;;;;;;;;;4757861;28;20829;-82
2021/11/13 06:07:26;;;;;;;18.88;5.25;;;;;;;;;;4761800;28;20540;-81
2021/11/13 06:09:54;;;;;;;24.80;5.53;;;;;;;;;;4750431;28;20103;-82
2021/11/13 06:12:22;;;;;;;21.63;5.28;;;;;;;;;;4742289;28;20399;-82
2021/11/13 06:14:49;;;;;;;21.05;5.93;;;;;;;;;;4752904;28;20027;-82
2021/11/13 06:17:18;;;;;;;17.55;4.65;;;;;;;;;;4759288;28;22095;-82
2021/11/13 06:19:46;;;;;;;19.33;4.70;;;;;;;;;;4739522;28;20031;-82
2021/11/13 06:22:15;;;;;;;19.08;4.93;;;;;;;;;;4745324;28;20211;-81
2021/11/13 06:24:42;;;;;;;19.48;5.22;;;;;;;;;;4755875;28;20054;-83
2021/11/13 06:27:14;;;;;;;17.10;4.88;;;;;;;;;;4760249;28;20082;-82
2021/11/13 06:29:48;;;;;;;19.67;5.07;;;;;;;;;;4750647;28;20043;-81
2021/11/13 06:32:15;;;;;;;20.25;5.30;;;;;;;;;;4757817;28;20043;-81
2021/11/13 06:34:43;;;;;;;20.80;5.97;;;;;;;;;;4734805;28;20035;-81
2021/11/13 06:37:13;;;;;;;23.08;6.82;;;;;;;;;;4751096;28;20047;-80
2021/11/13 06:39:46;;;;;;;18.58;5.60;;;;;;;;;;4743260;28;20070;-83
2021/11/13 06:42:18;;;;;;;16.75;4.82;;;;;;;;;;4751961;28;21464;-81
2021/11/13 06:44:52;;;;;;;20.85;5.47;;;;;;;;;;4750783;28;21306;-81
2021/11/13 06:47:21;;;;;;;19.00;5.55;;;;;;;;;;4762317;28;20050;-83
2021/11/13 06:49:47;;;;;;;21.75;5.55;;;;;;;;;;4794135;28;21961;-84
2021/11/13 06:52:15;;;;;;;15.07;4.72;;;;;;;;;;4795663;28;20129;-82
2021/11/13 06:54:49;;;;;;;15.45;4.72;;;;;;;;;;4781648;28;20048;-83
2021/11/13 06:57:25;;;;;;;16.95;5.50;;;;;;;;;;4812653;28;21220;-83
2021/11/13 06:59:56;;;;;;;17.75;5.03;;;;;;;;;;4798612;28;20094;-82
2021/11/13 07:02:25;;;;;;;18.02;5.20;;;;;;;;;;4805296;28;20749;-82
2021/11/13 07:04:53;;;;;;;20.40;5.70;;;;;;;;;;4789855;28;20041;-82
2021/11/13 07:07:21;;;;;;;18.67;5.55;;;;;;;;;;4795161;28;21150;-81
2021/11/13 07:09:56;;;;;;;20.45;4.78;;;;;;;;;;4793953;28;20072;-81
2021/11/13 07:12:24;;;;;;;23.73;5.47;;;;;;;;;;4784231;28;20145;-84
2021/11/13 07:14:53;;;;;;;13.18;3.95;;;;;;;;;;4806439;28;20026;-82
2021/11/13 07:17:21;;;;;;;20.77;5.15;;;;;;;;;;4798978;28;20136;-81
2021/11/13 07:19:54;;;;;;;16.77;4.60;;;;;;;;;;4785989;28;20805;-82
2021/11/13 07:22:25;;;;;;;19.02;5.22;;;;;;;;;;4801578;28;20049;-82
2021/11/13 07:24:56;;;;;;;13.93;4.50;;;;;;;;;;4790534;28;20038;-81
2021/11/13 07:27:27;;;;;;;19.42;4.97;;;;;;;;;;4788481;28;20133;-81
2021/11/13 07:29:59;;;;;;;17.83;6.25;;;;;;;;;;4786126;28;20041;-82
2021/11/13 07:32:35;;;;;;;22.02;6.53;;;;;;;;;;4794558;28;20100;-82
2021/11/13 07:35:05;;;;;;;21.77;6.10;;;;;;;;;;4785332;28;21587;-83
2021/11/13 07:38:21;;;;;;;19.33;5.43;;;;;;;;;;4785122;28;20791;-83
2021/11/13 07:41:16;;;;;;;19.33;5.30;;;;;;;;;;4765417;28;20105;-83
2021/11/13 07:43:51;;;;;;;15.90;5.10;;;;;;;;;;4753602;28;20745;-83
2021/11/13 07:46:20;;;;;;;19.58;5.35;;;;;;;;;;4753115;28;22626;-82
2021/11/13 07:49:03;;;;;;;17.25;5.03;;;;;;;;;;4764633;28;20038;-82
2021/11/13 07:52:07;;;;;;;16.50;5.97;;;;;;;;;;4742179;28;22811;-82
2021/11/13 07:55:09;;;;;;;20.63;5.90;;;;;;;;;;4703309;29;20594;-82
2021/11/13 07:57:40;;;;;;;13.60;4.25;;;;;;;;;;4702495;29;21587;-81
2021/11/13 08:00:18;;;;;;;15.43;4.25;;;;;;;;;;4706779;29;20045;-82
2021/11/13 08:03:07;;;;;;;16.27;4.47;;;;;;;;;;4713548;29;20139;-82
2021/11/13 08:08:38;;;;;;;14.50;3.63;;;;;;;;;;4691669;29;21439;-83
2021/11/13 08:11:08;;;;;;;15.50;4.03;;;;;;;;;;4692213;29;20049;-83
2021/11/13 08:13:51;;;;;;;14.98;4.30;;;;;;;;;;4677701;29;20042;-82
2021/11/13 08:16:26;;;;;;;13.20;3.90;;;;;;;;;;4675775;29;20045;-82
2021/11/13 08:22:27;;;;;;;15.32;3.88;;;;;;;;;;4693590;29;20901;-82
2021/11/13 08:24:58;;;;;;;19.33;4.22;;;;;;;;;;4663321;29;20049;-83
2021/11/13 08:27:46;;;;;;;16.05;4.97;;;;;;;;;;4679058;29;20072;-83
2021/11/13 08:30:17;;;;;;;15.45;6.03;;;;;;;;;;4665590;29;21106;-83
2021/11/13 08:32:45;;;;;;;14.38;4.90;;;;;;;;;;4738898;28;20992;-85
2021/11/13 08:35:26;;;;;;;15.57;4.00;;;;;;;;;;4730171;29;20710;-82
2021/11/13 08:37:53;;;;;;;14.18;3.65;;;;;;;;;;4722035;29;20052;-81
2021/11/13 08:40:36;;;;;;;13.48;4.05;;;;;;;;;;4735202;29;20180;-83
2021/11/13 08:43:06;;;;;;;15.15;4.70;;;;;;;;;;4724899;28;20162;-84
2021/11/13 08:45:39;;;;;;;16.05;4.78;;;;;;;;;;4731147;29;20540;-83
2021/11/13 08:48:14;;;;;;;16.83;3.90;;;;;;;;;;4744236;29;20043;-83
2021/11/13 08:50:42;;;;;;;13.30;3.22;;;;;;;;;;4742098;28;20048;-82
2021/11/13 08:53:21;;;;;;;13.43;3.67;;;;;;;;;;4727651;28;21421;-81
2021/11/13 08:55:50;;;;;;;13.98;3.67;;;;;;;;;;4740126;29;20887;-81
2021/11/13 08:58:24;;;;;;;18.70;4.72;;;;;;;;;;4741988;29;20056;-83
2021/11/13 09:01:00;;;;;;;17.38;4.93;;;;;;;;;;4730214;29;20095;-83
2021/11/13 09:03:40;;;;;;;15.68;4.03;;;;;;;;;;4731029;28;20027;-81
2021/11/13 09:06:13;;;;;;;14.32;3.85;;;;;;;;;;4730497;29;21488;-82
2021/11/13 09:08:48;;;;;;;13.85;3.72;;;;;;;;;;4727670;28;20148;-83
2021/11/13 09:14:19;;;;;;;15.02;3.45;;;;;;;;;;4747249;29;20058;-91
2021/11/13 09:16:51;;;;;;;10.80;2.92;;;;;;;;;;4826493;28;20055;-91
2021/11/13 09:19:28;;;;;;;14.75;5.10;;;;;;;;;;4790281;29;20036;-91
2021/11/13 09:22:03;;;;;;;14.25;4.25;;;;;;;;;;4778765;28;20044;-92
2021/11/13 09:24:30;;;;;;;12.32;3.97;;;;;;;;;;4783016;28;20058;-91
2021/11/13 09:27:00;;;;;;;12.32;3.25;;;;;;;;;;4802981;29;20881;-90
2021/11/13 09:32:55;;;;;;;13.02;3.88;;;;;;;;;;4794932;29;20051;-90
2021/11/13 09:35:31;;;;;;;12.32;3.53;;;;;;;;;;4772165;28;20036;-90
2021/11/13 09:40:59;;;;;;;15.80;4.60;;;;;;;;;;4778125;29;20093;-90
2021/11/13 09:43:27;;;;;;;17.05;3.90;;;;;;;;;;4749311;29;20039;-90
2021/11/13 09:46:04;;;;;;;15.80;4.18;;;;;;;;;;4748845;29;20039;-88
2021/11/13 09:48:32;;;;;;;12.70;2.97;;;;;;;;;;4745768;29;20075;-87
2021/11/13 09:51:13;;;;;;;13.13;3.45;;;;;;;;;;4753813;28;21427;-88
2021/11/13 09:53:51;;;;;;;10.65;3.10;;;;;;;;;;4770223;28;20043;-88
2021/11/13 09:56:22;;;;;;;;;;;;;;;;;;4733004;28;20040;-87
2021/11/13 09:59:31;;;;;;;11.10;2.65;;;;;;;;;;4763604;29;20390;-90
2021/11/13 10:02:20;;;;;;;7.32;1.80;;;;;;;;;;4760677;28;20647;-87
2021/11/13 10:34:22;;;;;;;;;;;;;;;;;;;;;
2021/11/13 10:46:29;;;;;;;10.52;2.67;;;;;;;;;;4403661;28;13246624;-82
2021/11/13 10:49:00;;;;;;;8.98;2.60;;;;;;;;;;4831320;28;20179;-80
2021/11/13 10:51:29;;;;;;;10.52;2.40;;;;;;;;;;4805556;28;20041;-81
2021/11/13 10:54:12;;;;;;;8.27;2.10;;;;;;;;;;4821689;28;20039;-79
2021/11/13 10:57:09;;;;;;;9.02;2.30;;;;;;;;;;4825520;28;20037;-80
2021/11/13 10:59:37;;;;;;;9.85;2.72;;;;;;;;;;4827945;28;20053;-79
2021/11/13 11:05:13;;;;;;;7.88;2.17;;;;;;;;;;4793628;28;20042;-81
2021/11/13 11:07:43;;;;;;;7.18;2.00;;;;;;;;;;4772171;28;20044;-78
2021/11/13 11:10:21;;;;;;;5.53;1.35;;;;;;;;;;4773736;28;20050;-79
2021/11/13 11:13:04;;;;;;;8.57;1.83;;;;;;;;;;4799379;28;20038;-79
2021/11/13 11:16:22;;;;;;;7.25;2.20;;;;;;;;;;4773443;28;20052;-81
2021/11/13 11:18:51;;;;;;;8.60;1.73;;;;;;;;;;4789335;28;20151;-81
2021/11/13 11:21:58;;;;;;;;;;;;;;;;;;;;;
2021/11/13 11:24:33;;;;;;;12.93;2.70;;;;;;;;;;4829413;29;20267;-80
2021/11/13 11:27:04;;;;;;;7.72;2.22;;;;;;;;;;4900721;28;20028;-79
2021/11/13 11:29:33;;;;;;;9.35;2.33;;;;;;;;;;4780406;28;22655;-80
2021/11/13 11:32:01;;;;;;;7.72;2.03;;;;;;;;;;4715950;29;20048;-80
2021/11/13 11:34:28;;;;;;;8.65;2.40;;;;;;;;;;4705156;29;20089;-78
2021/11/13 11:37:00;;;;;;;9.60;3.33;;;;;;;;;;4692681;29;20039;-79
2021/11/13 11:39:27;;;;;;;9.63;2.22;;;;;;;;;;4850493;28;20043;-81
2021/11/13 11:42:14;;;;;;;8.65;2.20;;;;;;;;;;4900215;28;20332;-79
2021/11/13 11:44:42;;;;;;;9.00;2.20;;;;;;;;;;4893650;29;20043;-81
2021/11/13 11:47:10;;;;;;;10.57;2.47;;;;;;;;;;4795052;29;20186;-79
2021/11/13 11:49:39;;;;;;;8.23;2.35;;;;;;;;;;4695910;29;20637;-79
2021/11/13 11:52:06;;;;;;;9.15;3.20;;;;;;;;;;4702997;28;20067;-78
2021/11/13 11:54:33;;;;;;;9.50;3.65;;;;;;;;;;4719885;28;20752;-79
2021/11/13 11:57:12;;;;;;;;;;;;;;;;;;;;;
2021/11/13 11:59:40;;;;;;;9.32;3.17;;;;;;;;;;4695172;29;20739;-80
2021/11/13 12:02:19;;;;;;;10.20;4.07;;;;;;;;;;4745904;28;20043;-80
2021/11/13 12:04:50;;;;;;;11.27;3.22;;;;;;;;;;4742377;28;20053;-80
2021/11/13 12:07:51;;;;;;;;;;;;;;;;;;;;;
2021/11/13 12:10:21;;;;;;;11.15;2.90;;;;;;;;;;4748247;28;20774;-80
2021/11/13 12:13:05;;;;;;;9.75;3.08;;;;;;;;;;4714119;28;20039;-81
2021/11/13 12:15:42;;;;;;;8.82;2.58;;;;;;;;;;4727892;28;20939;-81
2021/11/13 12:18:27;;;;;;;10.50;2.90;;;;;;;;;;4856414;28;20031;-78
2021/11/13 12:21:08;;;;;;;10.75;3.72;;;;;;;;;;4791760;28;20215;-78
2021/11/13 12:23:38;;;;;;;10.13;3.35;;;;;;;;;;4753550;28;20089;-78
2021/11/13 12:26:07;;;;;;;8.55;2.33;;;;;;;;;;4753475;28;20053;-80
2021/11/13 12:28:35;;;;;;;10.20;3.08;;;;;;;;;;4754078;28;20182;-80
2021/11/13 12:31:09;;;;;;;11.48;2.90;;;;;;;;;;4752102;28;20094;-80
2021/11/13 12:33:56;;;;;;;11.82;3.05;;;;;;;;;;4746963;28;20038;-81
2021/11/13 12:36:30;;;;;;;11.35;3.30;;;;;;;;;;4735188;28;20797;-78
2021/11/13 12:38:56;;;;;;;12.35;2.88;;;;;;;;;;4756814;28;20132;-78
2021/11/13 12:41:32;;;;;;;11.43;3.10;;;;;;;;;;4753031;28;20089;-77
2021/11/13 12:43:58;;;;;;;11.65;3.22;;;;;;;;;;4760168;28;20148;-79
2021/11/13 12:46:36;;;;;;;12.57;3.28;;;;;;;;;;4736333;28;20568;-79
2021/11/13 12:49:22;;;;;;;10.52;3.08;;;;;;;;;;4737277;28;20129;-79
2021/11/13 12:51:57;;;;;;;12.70;3.47;;;;;;;;;;4752637;28;20863;-78
2021/11/13 12:54:27;;;;;;;12.43;3.15;;;;;;;;;;4740428;28;20046;-77
2021/11/13 12:57:10;;;;;;;12.55;3.60;;;;;;;;;;4747705;28;20138;-79
2021/11/13 12:59:43;;;;;;;13.68;4.07;;;;;;;;;;4747158;28;20296;-78
2021/11/13 13:02:17;;;;;;;12.90;4.47;;;;;;;;;;4750703;28;20039;-80
2021/11/13 13:04:44;;;;;;;15.52;5.05;;;;;;;;;;4746302;28;20047;-80
2021/11/13 13:07:12;;;;;;;15.13;3.78;;;;;;;;;;4761655;28;20057;-79
2021/11/13 13:09:59;;;;;;;14.23;3.58;;;;;;;;;;4743232;28;21059;-79
2021/11/13 13:12:35;;;;;;;13.57;4.13;;;;;;;;;;4742870;28;20869;-79
2021/11/13 13:15:08;;;;;;;15.73;5.80;;;;;;;;;;4752032;28;20064;-79
2021/11/13 13:17:36;;;;;;;15.90;5.53;;;;;;;;;;4766939;28;20132;-79
2021/11/13 13:20:07;;;;;;;17.45;6.70;;;;;;;;;;4767669;28;20136;-79
2021/11/13 13:22:34;;;;;;;15.35;5.72;;;;;;;;;;4766886;28;20628;-80
2021/11/13 13:25:04;;;;;;;21.92;8.95;;;;;;;;;;4767902;28;20172;-79
2021/11/13 13:27:48;;;;;;;17.25;5.25;;;;;;;;;;4769593;28;20038;-79
2021/11/13 13:30:18;;;;;;;21.25;6.75;;;;;;;;;;4787159;28;20096;-79
2021/11/13 13:32:45;;;;;;;12.55;4.78;;;;;;;;;;4742825;28;20050;-79
2021/11/13 13:35:15;;;;;;;19.42;6.93;;;;;;;;;;4760977;28;20133;-78
2021/11/13 13:38:02;;;;;;;15.30;6.15;;;;;;;;;;4799266;28;20037;-81
2021/11/13 13:40:38;;;;;;;15.00;5.57;;;;;;;;;;4778542;28;20155;-79
2021/11/13 13:43:24;;;;;;;15.10;5.30;;;;;;;;;;4783682;28;20081;-79
2021/11/13 13:46:41;;;;;;;16.42;6.78;;;;;;;;;;4797935;28;20058;-79
2021/11/13 13:49:01;;;;;;;20.00;11.33;;;;;;;;;;4791376;28;20057;-79
2021/11/13 13:51:43;;;;;;;19.67;10.13;;;;;;;;;;4795807;28;20110;-78
2021/11/13 13:54:19;;;;;;;13.82;5.97;;;;;;;;;;4800491;28;20022;-80
2021/11/13 13:56:51;;;;;;;13.27;4.72;;;;;;;;;;4770080;28;20159;-79
2021/11/13 13:59:41;;;;;;;13.48;4.30;;;;;;;;;;4781062;28;20638;-79
2021/11/13 14:02:15;;;;;;;14.85;4.63;;;;;;;;;;4781267;28;21610;-78
2021/11/13 14:04:46;;;;;;;11.80;3.67;;;;;;;;;;4762686;28;20038;-79
2021/11/13 14:07:19;;;;;;;13.70;4.30;;;;;;;;;;4791396;28;20034;-80
2021/11/13 14:09:47;;;;;;;13.15;3.95;;;;;;;;;;4762155;28;20042;-78
2021/11/13 14:12:13;;;;;;;14.82;4.10;;;;;;;;;;4770545;28;20031;-78
2021/11/13 14:15:06;;;;;;;13.52;4.30;;;;;;;;;;4800341;28;21130;-80
2021/11/13 14:17:33;;;;;;;13.25;3.72;;;;;;;;;;4773807;28;20172;-78
2021/11/13 14:20:01;;;;;;;12.55;4.13;;;;;;;;;;4786201;28;20046;-79
2021/11/13 14:22:31;;;;;;;19.10;4.63;;;;;;;;;;4765656;28;20107;-78
2021/11/13 14:25:11;;;;;;;15.02;4.53;;;;;;;;;;4772705;28;20048;-80
2021/11/13 14:27:42;;;;;;;12.68;3.80;;;;;;;;;;4760676;28;20064;-81
2021/11/13 14:30:09;;;;;;;13.98;4.53;;;;;;;;;;4775918;28;20049;-78
2021/11/13 14:32:59;;;;;;;15.82;4.35;;;;;;;;;;4728906;28;20786;-79
2021/11/13 14:35:26;;;;;;;14.15;4.38;;;;;;;;;;4734621;28;20043;-77
2021/11/13 14:37:53;;;;;;;11.60;3.70;;;;;;;;;;4715063;28;20066;-76
2021/11/13 14:40:21;;;;;;;12.75;3.72;;;;;;;;;;4729226;28;20768;-77
2021/11/13 14:42:47;;;;;;;11.90;4.38;;;;;;;;;;4713816;28;21780;-77
2021/11/13 14:45:25;;;;;;;13.52;3.60;;;;;;;;;;4732467;28;20823;-80
2021/11/13 14:47:58;;;;;;;13.73;4.25;;;;;;;;;;4695751;28;20453;-77
2021/11/13 14:50:25;;;;;;;12.27;4.63;;;;;;;;;;4733323;28;20102;-79
2021/11/13 14:52:53;;;;;;;14.00;4.95;;;;;;;;;;4729258;28;20050;-78
2021/11/13 14:55:23;;;;;;;13.25;4.05;;;;;;;;;;4732274;28;20035;-78
2021/11/13 14:57:53;;;;;;;15.32;4.30;;;;;;;;;;4719302;28;20031;-77
2021/11/13 15:00:33;;;;;;;15.55;4.30;;;;;;;;;;4723006;28;20152;-78
2021/11/13 15:03:03;;;;;;;12.45;4.05;;;;;;;;;;4733274;28;20038;-77
2021/11/13 15:05:30;;;;;;;14.13;4.55;;;;;;;;;;4747625;28;20038;-78
2021/11/13 15:07:56;;;;;;;15.23;4.10;;;;;;;;;;4746117;28;20042;-77
2021/11/13 15:10:23;;;;;;;16.20;4.28;;;;;;;;;;4750110;28;20069;-77
2021/11/13 15:12:49;;;;;;;14.75;4.28;;;;;;;;;;4773066;28;20048;-77
2021/11/13 15:15:16;;;;;;;16.20;3.78;;;;;;;;;;4771430;28;20983;-78
2021/11/13 15:17:43;;;;;;;14.18;3.92;;;;;;;;;;4778485;28;20478;-78
2021/11/13 15:20:18;;;;;;;13.90;4.13;;;;;;;;;;4771329;28;20474;-79
2021/11/13 15:22:46;;;;;;;14.30;4.40;;;;;;;;;;4770099;28;20152;-78
2021/11/13 15:25:12;;;;;;;16.05;4.18;;;;;;;;;;4759705;28;20042;-79
2021/11/13 15:27:39;;;;;;;14.63;4.05;;;;;;;;;;4748139;28;21632;-78
2021/11/13 15:30:13;;;;;;;13.75;4.47;;;;;;;;;;4757798;28;20066;-78
2021/11/13 15:32:44;;;;;;;15.35;4.53;;;;;;;;;;4762744;28;20041;-79
2021/11/13 15:35:11;;;;;;;17.13;5.85;;;;;;;;;;4759292;28;20113;-77
2021/11/13 15:37:37;;;;;;;16.58;5.05;;;;;;;;;;4927747;28;20035;-79
2021/11/13 15:40:14;;;;;;;18.30;6.88;;;;;;;;;;4751436;28;20041;-79
2021/11/13 15:42:42;;;;;;;17.17;5.53;;;;;;;;;;4773793;28;21144;-78
2021/11/13 15:45:10;;;;;;;20.80;6.38;;;;;;;;;;4759826;28;20168;-79
2021/11/13 15:47:37;;;;;;;24.08;9.45;;;;;;;;;;4789441;28;20038;-78
2021/11/13 15:50:08;;;;;;;21.70;8.45;;;;;;;;;;4770953;28;20220;-78
2021/11/13 15:52:40;;;;;;;30.83;13.35;;;;;;;;;;4789542;28;20029;-77
2021/11/13 15:55:09;;;;;;;23.55;9.35;;;;;;;;;;4771660;28;20796;-76
2021/11/13 15:57:35;;;;;;;22.27;6.50;;;;;;;;;;4771000;28;20049;-77
2021/11/13 16:00:02;;;;;;;27.50;11.43;;;;;;;;;;4770925;28;20745;-77
2021/11/13 16:02:28;;;;;;;22.95;7.78;;;;;;;;;;4772273;28;20202;-77
2021/11/13 16:04:54;;;;;;;25.52;10.20;;;;;;;;;;4770874;28;21375;-77
2021/11/13 16:07:21;;;;;;;26.70;8.20;;;;;;;;;;4774043;28;20042;-77
2021/11/13 16:09:47;;;;;;;26.17;8.20;;;;;;;;;;4786644;28;20824;-77
2021/11/13 16:12:13;;;;;;;20.40;6.85;;;;;;;;;;4770099;28;20137;-79
2021/11/13 16:14:40;;;;;;;20.27;6.15;;;;;;;;;;4765427;28;20057;-77
2021/11/13 16:17:06;;;;;;;24.38;7.55;;;;;;;;;;4781233;28;20061;-77
2021/11/13 16:19:33;;;;;;;25.58;7.07;;;;;;;;;;4768907;28;20041;-77